Time;durP1;ratioP1;P1;durP2;ratioP2;P2;SDS_P1;SDS_P2;PMS_P1;PMS_P2;Temp;Humidity;BMP_temperature;BMP_pressure;BME280_temperature;BME280_humidity;BME280_pressure;Samples;Min_cycle;Max_cycle;Signal;HPM_P1;HPM_P2
2022/04/10 00:01:24;;;;;;;;;;;19.20;42.10;;;;;;5055598;28;19921;-60
2022/04/10 00:03:50;;;;;;;;;;;19.20;42.00;;;;;;5055312;28;19912;-60
2022/04/10 00:06:15;;;;;;;;;;;19.20;42.00;;;;;;5054552;28;20004;-60
2022/04/10 00:08:41;;;;;;;;;;;19.10;42.10;;;;;;5073166;28;19912;-60
2022/04/10 00:11:06;;;;;;;;;;;19.10;42.30;;;;;;5054789;28;20380;-60
2022/04/10 00:13:32;;;;;;;;;;;19.10;42.20;;;;;;5073146;28;20445;-60
2022/04/10 00:15:57;;;;;;;;;;;19.20;42.20;;;;;;5055303;28;19913;-60
2022/04/10 00:18:22;;;;;;;;;;;19.10;42.00;;;;;;5055324;28;19919;-60
2022/04/10 00:20:48;;;;;;;;;;;19.20;42.00;;;;;;5073375;28;19924;-59
2022/04/10 00:23:14;;;;;;;;;;;19.10;42.10;;;;;;5036985;28;19925;-60
2022/04/10 00:25:41;;;;;;;;;;;19.10;42.20;;;;;;5072367;28;21422;-60
2022/04/10 00:28:08;;;;;;;;;;;19.00;42.10;;;;;;5072666;28;19912;-60
2022/04/10 00:30:33;;;;;;;;;;;19.00;42.00;;;;;;5069523;28;19919;-60
2022/04/10 00:32:59;;;;;;;;;;;19.00;42.10;;;;;;5072221;28;19924;-60
2022/04/10 00:35:24;;;;;;;;;;;19.10;42.20;;;;;;5072601;28;19947;-60
2022/04/10 00:37:50;;;;;;;;;;;19.00;42.00;;;;;;5055023;28;19913;-60
2022/04/10 00:40:15;;;;;;;;;;;19.00;42.10;;;;;;5071881;28;20061;-60
2022/04/10 00:42:41;;;;;;;;;;;19.00;42.10;;;;;;5055063;28;19912;-60
2022/04/10 00:45:07;;;;;;;;;;;19.00;42.10;;;;;;5037643;28;20249;-60
2022/04/10 00:47:33;;;;;;;;;;;19.00;42.00;;;;;;5054774;28;19919;-60
2022/04/10 00:49:59;;;;;;;;;;;19.00;42.10;;;;;;5069490;28;20350;-60
2022/04/10 00:52:27;;;;;;;;;;;19.00;42.10;;;;;;5054612;28;19943;-60
2022/04/10 00:54:53;;;;;;;;;;;19.00;42.20;;;;;;5053367;28;19924;-60
2022/04/10 00:57:18;;;;;;;;;;;18.90;42.20;;;;;;5072289;28;19917;-60
2022/04/10 00:59:44;;;;;;;;;;;18.90;42.10;;;;;;5071874;28;20061;-59
2022/04/10 01:02:09;;;;;;;;;;;18.90;42.10;;;;;;5053427;28;20399;-60
2022/04/10 01:04:36;;;;;;;;;;;18.90;42.30;;;;;;5053862;28;19923;-58
2022/04/10 01:07:01;;;;;;;;;;;18.90;42.30;;;;;;5052061;28;19916;-58
2022/04/10 01:09:27;;;;;;;;;;;18.80;42.10;;;;;;5054965;28;19919;-58
2022/04/10 01:11:53;;;;;;;;;;;18.80;42.10;;;;;;5052312;28;19970;-58
2022/04/10 01:14:18;;;;;;;;;;;18.90;42.20;;;;;;5053920;28;19912;-58
2022/04/10 01:16:44;;;;;;;;;;;18.90;42.20;;;;;;5053383;28;20015;-57
2022/04/10 01:19:09;;;;;;;;;;;18.90;42.20;;;;;;5071118;28;19912;-58
2022/04/10 01:21:39;;;;;;;;;;;18.80;42.20;;;;;;5071938;28;19916;-58
2022/04/10 01:24:05;;;;;;;;;;;18.90;42.20;;;;;;5070980;28;19979;-58
2022/04/10 01:26:30;;;;;;;;;;;18.90;42.20;;;;;;5053427;28;20007;-58
2022/04/10 01:28:57;;;;;;;;;;;18.90;42.20;;;;;;5052345;28;19964;-58
2022/04/10 01:31:22;;;;;;;;;;;19.00;42.20;;;;;;5036592;28;19939;-58
2022/04/10 01:33:48;;;;;;;;;;;19.10;41.90;;;;;;5053555;28;19992;-58
2022/04/10 01:36:13;;;;;;;;;;;19.20;41.70;;;;;;5053662;28;20609;-58
2022/04/10 01:38:39;;;;;;;;;;;19.20;41.40;;;;;;5053372;28;20292;-58
2022/04/10 01:41:04;;;;;;;;;;;19.30;41.20;;;;;;5051956;28;19917;-58
2022/04/10 01:43:30;;;;;;;;;;;19.50;41.00;;;;;;5071563;28;20344;-58
2022/04/10 01:45:56;;;;;;;;;;;19.50;40.80;;;;;;5051299;28;19913;-58
2022/04/10 01:48:21;;;;;;;;;;;19.60;40.70;;;;;;5053420;28;19935;-58
2022/04/10 01:50:47;;;;;;;;;;;19.60;40.60;;;;;;5071390;28;20002;-58
2022/04/10 01:53:12;;;;;;;;;;;19.60;40.50;;;;;;5070801;28;19960;-57
2022/04/10 01:55:38;;;;;;;;;;;19.70;40.50;;;;;;5071269;28;20003;-58
2022/04/10 01:58:03;;;;;;;;;;;19.70;40.50;;;;;;5067195;28;20442;-58
2022/04/10 02:00:29;;;;;;;;;;;19.70;40.40;;;;;;5053323;28;19913;-58
2022/04/10 02:02:54;;;;;;;;;;;19.70;40.40;;;;;;5070721;28;19920;-58
2022/04/10 02:05:20;;;;;;;;;;;19.70;40.40;;;;;;5071253;28;19947;-58
2022/04/10 02:07:45;;;;;;;;;;;19.70;40.40;;;;;;5050560;28;20269;-58
2022/04/10 02:10:11;;;;;;;;;;;19.70;40.40;;;;;;5069940;28;20425;-58
2022/04/10 02:12:36;;;;;;;;;;;19.60;40.50;;;;;;5070598;28;19916;-58
2022/04/10 02:15:02;;;;;;;;;;;19.50;40.60;;;;;;5070485;28;19913;-58
2022/04/10 02:17:27;;;;;;;;;;;19.40;40.70;;;;;;5048439;28;20326;-58
2022/04/10 02:19:53;;;;;;;;;;;19.40;40.90;;;;;;5070610;28;19916;-58
2022/04/10 02:22:18;;;;;;;;;;;19.30;41.00;;;;;;5070377;28;19967;-58
2022/04/10 02:24:44;;;;;;;;;;;19.30;41.20;;;;;;5070155;28;19913;-58
2022/04/10 02:27:10;;;;;;;;;;;19.20;41.20;;;;;;5070522;28;19912;-58
2022/04/10 02:29:35;;;;;;;;;;;19.20;41.20;;;;;;5070629;28;19917;-58
2022/04/10 02:32:01;;;;;;;;;;;19.20;41.20;;;;;;5052245;28;19927;-58
2022/04/10 02:34:26;;;;;;;;;;;19.20;41.20;;;;;;5035822;28;20012;-58
2022/04/10 02:36:52;;;;;;;;;;;19.20;41.30;;;;;;5070678;28;19916;-58
2022/04/10 02:39:17;;;;;;;;;;;19.10;41.20;;;;;;5070007;28;19920;-58
2022/04/10 02:41:42;;;;;;;;;;;19.10;41.20;;;;;;5070749;28;19917;-58
2022/04/10 02:44:08;;;;;;;;;;;19.10;41.20;;;;;;5069996;28;19943;-58
2022/04/10 02:46:33;;;;;;;;;;;19.10;41.20;;;;;;5070742;28;19966;-58
2022/04/10 02:48:59;;;;;;;;;;;19.20;41.20;;;;;;5070374;28;19913;-58
2022/04/10 02:51:24;;;;;;;;;;;19.10;41.00;;;;;;5052449;28;19916;-58
2022/04/10 02:53:50;;;;;;;;;;;19.10;41.10;;;;;;5068833;28;20399;-58
2022/04/10 02:56:15;;;;;;;;;;;19.20;41.10;;;;;;5070544;28;20402;-58
2022/04/10 02:58:41;;;;;;;;;;;19.20;41.00;;;;;;5052798;28;20339;-58
2022/04/10 03:01:06;;;;;;;;;;;19.20;40.90;;;;;;5055320;28;19912;-58
2022/04/10 03:03:31;;;;;;;;;;;19.20;40.90;;;;;;5039698;28;19912;-58
2022/04/10 03:05:57;;;;;;;;;;;19.20;40.90;;;;;;5054603;28;19965;-58
2022/04/10 03:08:22;;;;;;;;;;;19.20;40.90;;;;;;5056277;28;19927;-58
2022/04/10 03:10:48;;;;;;;;;;;19.20;40.80;;;;;;5073538;28;20368;-58
2022/04/10 03:13:14;;;;;;;;;;;19.20;40.80;;;;;;5070962;28;20000;-58
2022/04/10 03:15:40;;;;;;;;;;;19.20;40.70;;;;;;5074064;28;19912;-58
2022/04/10 03:18:05;;;;;;;;;;;19.20;40.70;;;;;;5055082;28;19913;-58
2022/04/10 03:20:31;;;;;;;;;;;19.20;40.80;;;;;;5039334;28;19970;-58
2022/04/10 03:22:56;;;;;;;;;;;19.20;40.80;;;;;;5073767;28;19994;-58
2022/04/10 03:25:22;;;;;;;;;;;19.20;40.90;;;;;;5055125;28;20161;-58
2022/04/10 03:27:47;;;;;;;;;;;19.10;40.90;;;;;;5055575;28;19920;-58
2022/04/10 03:30:13;;;;;;;;;;;19.10;41.00;;;;;;5074114;28;19917;-59
2022/04/10 03:32:38;;;;;;;;;;;19.10;41.10;;;;;;5073836;28;19924;-58
2022/04/10 03:35:04;;;;;;;;;;;19.10;41.00;;;;;;5073504;28;19935;-58
2022/04/10 03:37:29;;;;;;;;;;;19.10;41.20;;;;;;5074103;28;19913;-58
2022/04/10 03:39:55;;;;;;;;;;;19.10;41.20;;;;;;5072685;28;20003;-58
2022/04/10 03:42:20;;;;;;;;;;;19.10;41.10;;;;;;5056128;28;19913;-59
2022/04/10 03:44:45;;;;;;;;;;;19.10;41.00;;;;;;5073817;28;20453;-58
2022/04/10 03:47:11;;;;;;;;;;;19.10;41.00;;;;;;5073584;28;20306;-58
2022/04/10 03:49:36;;;;;;;;;;;19.10;41.10;;;;;;5073396;28;20351;-58
2022/04/10 03:52:02;;;;;;;;;;;19.00;41.10;;;;;;5073307;28;20536;-58
2022/04/10 03:54:27;;;;;;;;;;;19.10;41.00;;;;;;5054964;28;19916;-58
2022/04/10 03:56:53;;;;;;;;;;;19.10;40.90;;;;;;5053617;28;19993;-60
2022/04/10 03:59:18;;;;;;;;;;;19.10;40.90;;;;;;5073390;28;19959;-58
2022/04/10 04:01:44;;;;;;;;;;;19.10;40.80;;;;;;5055296;28;19944;-58
2022/04/10 04:04:09;;;;;;;;;;;19.20;40.70;;;;;;5073247;28;19931;-58
2022/04/10 04:06:34;;;;;;;;;;;19.20;40.80;;;;;;5072863;28;19942;-57
2022/04/10 04:09:00;;;;;;;;;;;19.10;40.80;;;;;;5052114;28;19967;-58
2022/04/10 04:11:25;;;;;;;;;;;19.10;40.80;;;;;;5073011;28;19920;-58
2022/04/10 04:13:51;;;;;;;;;;;19.10;40.90;;;;;;5072806;28;19923;-58
2022/04/10 04:16:16;;;;;;;;;;;19.10;40.80;;;;;;5037068;28;19939;-58
2022/04/10 04:18:42;;;;;;;;;;;19.10;40.80;;;;;;5054692;28;19920;-58
2022/04/10 04:21:07;;;;;;;;;;;19.10;40.90;;;;;;5073014;28;19923;-58
2022/04/10 04:23:33;;;;;;;;;;;19.00;40.90;;;;;;5072601;28;19985;-58
2022/04/10 04:25:58;;;;;;;;;;;19.00;40.90;;;;;;5072304;28;20438;-58
2022/04/10 04:28:24;;;;;;;;;;;19.00;40.90;;;;;;5054503;28;19920;-58
2022/04/10 04:30:49;;;;;;;;;;;19.00;40.90;;;;;;5072761;28;19982;-58
2022/04/10 04:33:16;;;;;;;;;;;19.00;40.90;;;;;;5054873;28;20007;-58
2022/04/10 04:35:42;;;;;;;;;;;19.00;41.00;;;;;;5054209;28;19919;-58
2022/04/10 04:38:07;;;;;;;;;;;18.90;40.90;;;;;;5054538;28;20014;-59
2022/04/10 04:40:33;;;;;;;;;;;18.90;41.00;;;;;;5053807;28;19917;-58
2022/04/10 04:42:58;;;;;;;;;;;18.90;41.10;;;;;;5048988;28;19920;-58
2022/04/10 04:45:24;;;;;;;;;;;18.90;41.00;;;;;;5054521;28;19913;-58
2022/04/10 04:47:49;;;;;;;;;;;18.90;40.90;;;;;;5037529;28;19913;-58
2022/04/10 04:50:15;;;;;;;;;;;18.90;41.00;;;;;;5072183;28;20498;-58
2022/04/10 04:52:40;;;;;;;;;;;18.90;41.00;;;;;;5071907;28;19923;-58
2022/04/10 04:55:06;;;;;;;;;;;18.90;41.00;;;;;;5067135;28;20360;-58
2022/04/10 04:57:31;;;;;;;;;;;18.90;41.00;;;;;;5072448;28;19928;-58
2022/04/10 04:59:57;;;;;;;;;;;19.00;41.00;;;;;;5071861;28;20015;-58
2022/04/10 05:02:22;;;;;;;;;;;18.90;40.90;;;;;;5072475;28;19923;-58
2022/04/10 05:04:47;;;;;;;;;;;18.90;40.90;;;;;;5071840;28;19917;-58
2022/04/10 05:07:13;;;;;;;;;;;18.90;40.80;;;;;;5054386;28;19916;-58
2022/04/10 05:09:38;;;;;;;;;;;19.00;40.80;;;;;;5053150;28;19920;-58
2022/04/10 05:12:04;;;;;;;;;;;19.00;40.90;;;;;;5068954;28;20049;-58
2022/04/10 05:14:30;;;;;;;;;;;19.00;40.90;;;;;;5071307;28;19912;-58
2022/04/10 05:16:55;;;;;;;;;;;19.00;40.80;;;;;;5071311;28;19920;-58
2022/04/10 05:19:21;;;;;;;;;;;19.00;40.90;;;;;;5053125;28;20421;-58
2022/04/10 05:21:47;;;;;;;;;;;19.10;40.90;;;;;;5071256;28;19912;-58
2022/04/10 05:24:12;;;;;;;;;;;19.00;40.70;;;;;;5056728;28;20679;-60
2022/04/10 05:26:38;;;;;;;;;;;19.00;40.80;;;;;;5052969;28;20295;-58
2022/04/10 05:29:03;;;;;;;;;;;19.00;40.70;;;;;;5071565;28;19916;-58
2022/04/10 05:31:29;;;;;;;;;;;19.00;40.60;;;;;;5053543;28;20342;-59
2022/04/10 05:33:54;;;;;;;;;;;19.00;40.70;;;;;;5070872;28;19927;-58
2022/04/10 05:36:20;;;;;;;;;;;19.00;40.70;;;;;;5052551;28;19938;-58
2022/04/10 05:38:46;;;;;;;;;;;19.00;40.80;;;;;;5052873;28;19912;-58
2022/04/10 05:41:14;;;;;;;;;;;18.90;40.80;;;;;;5071139;28;19916;-58
2022/04/10 05:43:40;;;;;;;;;;;18.90;40.90;;;;;;5053616;28;19951;-58
2022/04/10 05:46:05;;;;;;;;;;;18.90;40.90;;;;;;5036822;28;19968;-58
2022/04/10 05:48:31;;;;;;;;;;;18.90;41.00;;;;;;5071404;28;19915;-58
2022/04/10 05:50:57;;;;;;;;;;;18.90;40.70;;;;;;5070190;28;19933;-58
2022/04/10 05:53:23;;;;;;;;;;;18.90;40.80;;;;;;5053236;28;19924;-58
2022/04/10 05:55:49;;;;;;;;;;;18.90;40.90;;;;;;5070666;28;20283;-58
2022/04/10 05:58:14;;;;;;;;;;;18.80;40.80;;;;;;5069863;28;19912;-58
2022/04/10 06:00:40;;;;;;;;;;;18.80;40.90;;;;;;5071293;28;19912;-58
2022/04/10 06:03:05;;;;;;;;;;;18.80;41.00;;;;;;5053116;28;20402;-59
2022/04/10 06:05:31;;;;;;;;;;;18.80;41.10;;;;;;5053474;28;19931;-58
2022/04/10 06:07:56;;;;;;;;;;;18.70;40.90;;;;;;5052957;28;19997;-58
2022/04/10 06:10:22;;;;;;;;;;;18.70;41.00;;;;;;5051741;28;19908;-58
2022/04/10 06:12:47;;;;;;;;;;;18.70;40.90;;;;;;5045979;28;20366;-58
2022/04/10 06:15:13;;;;;;;;;;;18.70;41.00;;;;;;5067727;28;20392;-58
2022/04/10 06:17:38;;;;;;;;;;;18.80;41.00;;;;;;5047346;28;20291;-58
2022/04/10 06:20:04;;;;;;;;;;;18.70;40.90;;;;;;5052640;28;19912;-58
2022/04/10 06:22:29;;;;;;;;;;;18.70;40.90;;;;;;5052663;28;19923;-58
2022/04/10 06:24:55;;;;;;;;;;;18.70;41.00;;;;;;5050677;28;19926;-58
2022/04/10 06:27:20;;;;;;;;;;;18.70;41.00;;;;;;5070852;28;20410;-58
2022/04/10 06:29:46;;;;;;;;;;;18.70;40.90;;;;;;5052104;28;19992;-58
2022/04/10 06:32:12;;;;;;;;;;;18.80;41.00;;;;;;5052827;28;20277;-58
2022/04/10 06:34:37;;;;;;;;;;;18.80;40.90;;;;;;5070714;28;19912;-58
2022/04/10 06:37:03;;;;;;;;;;;18.80;40.90;;;;;;5070914;28;19955;-58
2022/04/10 06:39:29;;;;;;;;;;;18.70;40.80;;;;;;5052030;28;20343;-59
2022/04/10 06:41:54;;;;;;;;;;;18.70;41.10;;;;;;5072904;28;19952;-61
2022/04/10 06:44:20;;;;;;;;;;;18.70;40.90;;;;;;5074458;28;19912;-58
2022/04/10 06:46:45;;;;;;;;;;;18.70;40.80;;;;;;5069033;28;19922;-58
2022/04/10 06:49:12;;;;;;;;;;;18.70;40.80;;;;;;5069305;28;19912;-58
2022/04/10 06:51:38;;;;;;;;;;;18.70;40.80;;;;;;5070312;28;20008;-58
2022/04/10 06:54:04;;;;;;;;;;;18.80;40.90;;;;;;5069347;28;19999;-58
2022/04/10 06:56:29;;;;;;;;;;;18.70;40.80;;;;;;5070811;28;20330;-58
2022/04/10 06:58:55;;;;;;;;;;;18.70;40.80;;;;;;5052199;28;19917;-58
2022/04/10 07:01:20;;;;;;;;;;;18.70;40.90;;;;;;5070657;28;19912;-58
2022/04/10 07:03:46;;;;;;;;;;;18.70;40.90;;;;;;5070212;28;19926;-58
2022/04/10 07:06:11;;;;;;;;;;;18.70;40.90;;;;;;5070766;28;19919;-58
2022/04/10 07:08:37;;;;;;;;;;;18.70;41.60;;;;;;5070058;28;19917;-58
2022/04/10 07:11:03;;;;;;;;;;;18.80;40.90;;;;;;5052508;28;20003;-58
2022/04/10 07:13:28;;;;;;;;;;;18.90;40.70;;;;;;5050406;28;19974;-58
2022/04/10 07:15:54;;;;;;;;;;;19.00;40.50;;;;;;5063779;28;19977;-58
2022/04/10 07:18:19;;;;;;;;;;;19.10;40.30;;;;;;5050874;28;19977;-58
2022/04/10 07:20:45;;;;;;;;;;;19.30;40.10;;;;;;5070067;28;20372;-58
2022/04/10 07:25:54;;;;;;;;;;;19.40;40.00;;;;;;5069811;28;19985;-58
2022/04/10 07:28:20;;;;;;;;;;;19.50;39.80;;;;;;5052191;28;19944;-58
2022/04/10 07:30:45;;;;;;;;;;;19.60;39.80;;;;;;5034628;28;19975;-58
2022/04/10 07:33:11;;;;;;;;;;;19.60;39.60;;;;;;5069892;28;19943;-58
2022/04/10 07:35:38;;;;;;;;;;;19.70;39.60;;;;;;5068889;28;19920;-58
2022/04/10 07:38:04;;;;;;;;;;;19.80;39.50;;;;;;5050819;28;19939;-58
2022/04/10 07:40:29;;;;;;;;;;;19.80;39.40;;;;;;5068944;28;19999;-58
2022/04/10 07:42:56;;;;;;;;;;;19.90;39.30;;;;;;5068463;28;19919;-58
2022/04/10 07:48:05;;;;;;;;;;;20.00;39.10;;;;;;5055361;28;19962;-58
2022/04/10 07:50:31;;;;;;;;;;;20.10;39.00;;;;;;5074632;28;19917;-58
2022/04/10 07:52:56;;;;;;;;;;;20.10;39.00;;;;;;5059431;28;19916;-58
2022/04/10 07:55:22;;;;;;;;;;;20.10;38.90;;;;;;5053964;28;19999;-58
2022/04/10 07:57:48;;;;;;;;;;;20.10;38.90;;;;;;5055210;28;19936;-58
2022/04/10 08:00:14;;;;;;;;;;;20.10;38.90;;;;;;5072480;28;19920;-58
2022/04/10 08:02:39;;;;;;;;;;;20.10;38.90;;;;;;5054236;28;19974;-58
2022/04/10 08:05:05;;;;;;;;;;;20.20;39.00;;;;;;5038441;28;19958;-58
2022/04/10 08:07:30;;;;;;;;;;;20.20;39.00;;;;;;5054884;28;19974;-58
2022/04/10 08:09:56;;;;;;;;;;;20.20;39.00;;;;;;5072589;28;19923;-58
2022/04/10 08:12:21;;;;;;;;;;;20.20;38.90;;;;;;5072984;28;20067;-58
2022/04/10 08:14:48;;;;;;;;;;;20.20;39.00;;;;;;5054587;28;19920;-58
2022/04/10 08:17:14;;;;;;;;;;;20.20;39.10;;;;;;5072498;28;20011;-58
2022/04/10 08:19:39;;;;;;;;;;;20.10;39.10;;;;;;5072438;28;20010;-58
2022/04/10 08:22:05;;;;;;;;;;;20.10;39.10;;;;;;5071573;28;20404;-58
2022/04/10 08:24:30;;;;;;;;;;;20.10;39.10;;;;;;5073052;28;20007;-58
2022/04/10 08:26:56;;;;;;;;;;;20.10;39.10;;;;;;5072338;28;19913;-58
2022/04/10 08:29:21;;;;;;;;;;;20.10;39.20;;;;;;5055612;28;19912;-58
2022/04/10 08:31:47;;;;;;;;;;;20.10;39.20;;;;;;5055321;28;19915;-58
2022/04/10 08:34:13;;;;;;;;;;;20.10;39.10;;;;;;5055929;28;19916;-59
2022/04/10 08:36:39;;;;;;;;;;;20.10;39.20;;;;;;5044961;28;19963;-58
2022/04/10 08:39:05;;;;;;;;;;;20.10;39.30;;;;;;5034905;28;19923;-58
2022/04/10 08:41:31;;;;;;;;;;;20.00;39.30;;;;;;5066309;28;19917;-58
2022/04/10 08:43:59;;;;;;;;;;;20.00;39.30;;;;;;5054896;28;20268;-58
2022/04/10 08:46:24;;;;;;;;;;;20.10;39.40;;;;;;5067582;28;19913;-58
2022/04/10 08:48:50;;;;;;;;;;;20.10;39.40;;;;;;5054813;28;19919;-58
2022/04/10 08:51:15;;;;;;;;;;;20.10;39.30;;;;;;5038489;28;19923;-58
2022/04/10 08:53:40;;;;;;;;;;;20.20;39.30;;;;;;5045824;28;20022;-58
2022/04/10 08:56:07;;;;;;;;;;;20.20;39.20;;;;;;5034799;28;19913;-58
2022/04/10 08:58:33;;;;;;;;;;;20.20;39.10;;;;;;5053574;28;19913;-58
2022/04/10 09:00:58;;;;;;;;;;;20.30;39.20;;;;;;5073198;28;20007;-58
2022/04/10 09:03:23;;;;;;;;;;;20.30;39.80;;;;;;5054952;28;19912;-58
2022/04/10 09:06:05;;;;;;;;;;;20.40;39.10;;;;;;5053429;28;19912;-58
2022/04/10 09:08:30;;;;;;;;;;;20.40;39.00;;;;;;5053820;28;19912;-58
2022/04/10 09:11:06;;;;;;;;;;;20.50;39.00;;;;;;5052633;28;19916;-58
2022/04/10 09:13:39;;;;;;;;;;;20.50;39.00;;;;;;5048117;28;19917;-59
2022/04/10 09:16:11;;;;;;;;;;;20.50;38.90;;;;;;5066617;28;19971;-58
2022/04/10 09:18:47;;;;;;;;;;;20.50;38.90;;;;;;5050133;28;20398;-58
2022/04/10 09:21:12;;;;;;;;;;;20.60;38.90;;;;;;5051466;28;20569;-58
2022/04/10 09:23:38;;;;;;;;;;;20.60;38.80;;;;;;5053536;28;19967;-58
2022/04/10 09:26:03;;;;;;;;;;;20.60;38.90;;;;;;5071183;28;19958;-58
2022/04/10 09:28:49;;;;;;;;;;;20.60;39.10;;;;;;5053644;28;19983;-59
2022/04/10 09:31:28;;;;;;;;;;;20.80;39.10;;;;;;5068443;28;19923;-58
2022/04/10 09:33:53;;;;;;;;;;;21.20;38.70;;;;;;5053419;28;19934;-59
2022/04/10 09:36:32;;;;;;;;;;;21.50;38.20;;;;;;5063193;28;20007;-59
2022/04/10 09:38:57;;;;;;;;;;;21.70;37.90;;;;;;5058840;28;19912;-59
2022/04/10 09:41:23;;;;;;;;;;;21.90;37.70;;;;;;5052208;28;19928;-60
2022/04/10 09:43:49;;;;;;;;;;;22.10;37.60;;;;;;5068783;28;19911;-59
2022/04/10 09:46:14;;;;;;;;;;;22.10;37.50;;;;;;5084917;28;20000;-59
2022/04/10 09:48:40;;;;;;;;;;;22.10;37.60;;;;;;5077473;28;19913;-56
2022/04/10 09:51:05;;;;;;;;;;;22.10;37.50;;;;;;5039119;28;19923;-59
2022/04/10 09:53:32;;;;;;;;;;;22.10;37.60;;;;;;5073541;28;19942;-59
2022/04/10 09:55:58;;;;;;;;;;;22.10;37.70;;;;;;5076347;28;19913;-58
2022/04/10 09:58:23;;;;;;;;;;;22.00;37.80;;;;;;5080153;28;19927;-59
2022/04/10 10:00:54;;;;;;;;;;;21.90;37.70;;;;;;5081265;28;19988;-59
2022/04/10 10:03:20;;;;;;;;;;;21.80;37.40;;;;;;5054605;28;20308;-58
2022/04/10 10:05:46;;;;;;;;;;;21.80;37.40;;;;;;5087157;28;19916;-58
2022/04/10 10:08:11;;;;;;;;;;;21.70;37.40;;;;;;5060551;28;19995;-58
2022/04/10 10:10:37;;;;;;;;;;;21.70;37.60;;;;;;5076316;28;19935;-58
2022/04/10 10:13:06;;;;;;;;;;;21.60;37.50;;;;;;5048474;28;19924;-59
2022/04/10 10:15:35;;;;;;;;;;;21.60;37.60;;;;;;5057900;28;19957;-59
2022/04/10 10:18:01;;;;;;;;;;;21.50;37.70;;;;;;5078209;28;19916;-58
2022/04/10 10:20:26;;;;;;;;;;;21.40;37.70;;;;;;5073896;28;19919;-58
2022/04/10 10:22:52;;;;;;;;;;;21.30;38.30;;;;;;5050499;28;19921;-58
2022/04/10 10:25:19;;;;;;;;;;;21.30;37.70;;;;;;5033283;28;19972;-58
2022/04/10 10:28:03;;;;;;;;;;;21.20;37.80;;;;;;5039403;28;19913;-58
2022/04/10 10:30:29;;;;;;;;;;;21.20;37.80;;;;;;5036397;28;19949;-58
2022/04/10 10:32:55;;;;;;;;;;;21.20;37.80;;;;;;5050824;28;20356;-58
2022/04/10 10:35:56;;;;;;;;;;;21.10;37.70;;;;;;5025296;28;20269;-60
2022/04/10 10:38:21;;;;;;;;;;;21.10;37.70;;;;;;4956686;28;20495;-58
2022/04/10 10:40:50;;;;;;;;;;;21.10;37.70;;;;;;5028036;28;19921;-58
2022/04/10 10:43:20;;;;;;;;;;;21.20;38.00;;;;;;5030738;28;20377;-59
2022/04/10 10:45:45;;;;;;;;;;;21.10;38.00;;;;;;5044426;28;20371;-59
2022/04/10 10:48:29;;;;;;;;;;;21.10;38.20;;;;;;5049337;28;19932;-58
2022/04/10 10:50:55;;;;;;;;;;;21.00;38.50;;;;;;5049222;28;20303;-58
2022/04/10 10:53:39;;;;;;;;;;;21.00;38.70;;;;;;5019905;28;20028;-59
2022/04/10 10:56:05;;;;;;;;;;;21.10;39.00;;;;;;5014412;28;20328;-59
2022/04/10 10:58:31;;;;;;;;;;;21.10;38.90;;;;;;5049122;28;19958;-58
2022/04/10 11:01:02;;;;;;;;;;;21.10;38.80;;;;;;5043018;28;19943;-58
2022/04/10 11:03:28;;;;;;;;;;;21.10;38.70;;;;;;5024705;28;20416;-59
2022/04/10 11:05:54;;;;;;;;;;;21.10;38.70;;;;;;5022575;28;19917;-59
2022/04/10 11:08:20;;;;;;;;;;;21.10;38.70;;;;;;5019185;28;19916;-59
2022/04/10 11:10:52;;;;;;;;;;;21.20;38.90;;;;;;5041281;28;19923;-59
2022/04/10 11:13:18;;;;;;;;;;;21.20;38.90;;;;;;5033794;28;19916;-59
2022/04/10 11:15:51;;;;;;;;;;;21.20;38.90;;;;;;5034371;28;20003;-59
2022/04/10 11:18:22;;;;;;;;;;;21.20;38.90;;;;;;5029365;28;19925;-58
2022/04/10 11:20:54;;;;;;;;;;;21.20;38.90;;;;;;5050483;28;19913;-57
2022/04/10 11:23:20;;;;;;;;;;;21.20;38.90;;;;;;5069355;28;19970;-59
2022/04/10 11:25:48;;;;;;;;;;;21.20;38.90;;;;;;5060361;28;19916;-59
2022/04/10 11:28:13;;;;;;;;;;;21.20;39.00;;;;;;5065224;28;20029;-60
2022/04/10 11:30:40;;;;;;;;;;;21.30;39.00;;;;;;5067707;28;19962;-59
2022/04/10 11:33:06;;;;;;;;;;;21.30;39.00;;;;;;5056499;28;19921;-59
2022/04/10 11:35:35;;;;;;;;;;;21.30;39.00;;;;;;5055339;28;19921;-59
2022/04/10 11:38:01;;;;;;;;;;;21.40;39.70;;;;;;5075753;28;19916;-60
2022/04/10 11:40:27;;;;;;;;;;;21.40;39.00;;;;;;5051598;28;19916;-59
2022/04/10 11:42:54;;;;;;;;;;;21.40;39.00;;;;;;5038919;28;19924;-59
2022/04/10 11:45:20;;;;;;;;;;;21.30;39.00;;;;;;5052692;28;19912;-59
2022/04/10 11:47:46;;;;;;;;;;;21.30;39.00;;;;;;5051232;28;19980;-59
2022/04/10 11:50:14;;;;;;;;;;;21.30;39.00;;;;;;5049673;28;20039;-60
2022/04/10 11:52:40;;;;;;;;;;;21.30;39.10;;;;;;5066005;28;20361;-59
2022/04/10 11:55:07;;;;;;;;;;;21.40;39.20;;;;;;5075693;28;19923;-60
2022/04/10 11:57:33;;;;;;;;;;;21.40;39.20;;;;;;5067940;28;19916;-60
2022/04/10 11:59:58;;;;;;;;;;;21.50;39.20;;;;;;5070390;28;19917;-59
2022/04/10 12:02:24;;;;;;;;;;;21.50;39.20;;;;;;5050941;28;19917;-60
2022/04/10 12:04:50;;;;;;;;;;;21.60;39.30;;;;;;5064703;28;19913;-60
2022/04/10 12:07:17;;;;;;;;;;;21.60;39.00;;;;;;5074163;28;19912;-60
2022/04/10 12:09:44;;;;;;;;;;;21.70;38.90;;;;;;5045313;28;19940;-61
2022/04/10 12:12:09;;;;;;;;;;;21.70;39.00;;;;;;5082363;28;19920;-61
2022/04/10 12:14:35;;;;;;;;;;;21.70;39.10;;;;;;5061217;28;19909;-60
2022/04/10 12:17:00;;;;;;;;;;;21.70;39.10;;;;;;5062224;28;19921;-61
2022/04/10 12:19:35;;;;;;;;;;;21.70;39.20;;;;;;5080104;28;19919;-61
2022/04/10 12:22:07;;;;;;;;;;;21.70;39.20;;;;;;5073565;28;20245;-60
2022/04/10 12:24:33;;;;;;;;;;;21.70;39.20;;;;;;5053877;28;19913;-60
2022/04/10 12:26:58;;;;;;;;;;;21.70;39.30;;;;;;5072896;28;20395;-60
2022/04/10 12:29:24;;;;;;;;;;;21.70;39.30;;;;;;5060626;28;20004;-61
2022/04/10 12:31:50;;;;;;;;;;;21.70;39.30;;;;;;5074856;28;19908;-61
2022/04/10 12:34:15;;;;;;;;;;;21.70;39.50;;;;;;5086643;28;20276;-60
2022/04/10 12:36:48;;;;;;;;;;;21.60;39.60;;;;;;5052162;28;19916;-60
2022/04/10 12:39:26;;;;;;;;;;;21.60;39.60;;;;;;5054520;28;19916;-60
2022/04/10 12:42:02;;;;;;;;;;;21.50;39.50;;;;;;5072053;28;19989;-60
2022/04/10 12:44:28;;;;;;;;;;;21.60;39.60;;;;;;5050108;28;20269;-60
2022/04/10 12:46:53;;;;;;;;;;;21.60;39.50;;;;;;5090113;28;19918;-61
2022/04/10 12:49:19;;;;;;;;;;;21.60;39.40;;;;;;5063660;28;19912;-61
2022/04/10 12:51:53;;;;;;;;;;;21.60;39.50;;;;;;5049022;28;19912;-61
2022/04/10 12:54:31;;;;;;;;;;;21.60;39.60;;;;;;5068937;28;19916;-60
2022/04/10 12:56:56;;;;;;;;;;;21.60;39.60;;;;;;5054062;28;20287;-60
2022/04/10 12:59:22;;;;;;;;;;;21.70;39.60;;;;;;5068085;28;19912;-60
2022/04/10 13:01:50;;;;;;;;;;;21.70;39.60;;;;;;5070671;28;19914;-60
2022/04/10 13:04:26;;;;;;;;;;;21.70;39.40;;;;;;5056113;28;19928;-60
2022/04/10 13:06:52;;;;;;;;;;;21.70;39.40;;;;;;5074688;28;19918;-62
2022/04/10 13:09:17;;;;;;;;;;;21.70;39.20;;;;;;5092534;28;19908;-60
2022/04/10 13:11:43;;;;;;;;;;;21.80;39.30;;;;;;5074996;28;19912;-60
2022/04/10 13:14:10;;;;;;;;;;;21.80;39.20;;;;;;5063662;28;19916;-62
2022/04/10 13:16:39;;;;;;;;;;;21.80;39.20;;;;;;5071316;28;20070;-60
2022/04/10 13:19:05;;;;;;;;;;;21.80;39.10;;;;;;5066967;28;19994;-61
2022/04/10 13:21:37;;;;;;;;;;;21.90;39.20;;;;;;5093233;28;19919;-60
2022/04/10 13:24:06;;;;;;;;;;;21.90;39.20;;;;;;5060117;28;19916;-61
2022/04/10 13:26:32;;;;;;;;;;;21.90;39.20;;;;;;5067953;28;19919;-60
2022/04/10 13:29:01;;;;;;;;;;;22.00;39.90;;;;;;5053942;28;19912;-60
2022/04/10 13:31:27;;;;;;;;;;;22.00;39.20;;;;;;5047252;28;19916;-60
2022/04/10 13:33:52;;;;;;;;;;;22.00;39.20;;;;;;5057539;28;19936;-60
2022/04/10 13:36:18;;;;;;;;;;;22.00;39.10;;;;;;5064601;28;19916;-60
2022/04/10 13:38:43;;;;;;;;;;;22.00;39.00;;;;;;5071491;28;19969;-60
2022/04/10 13:41:10;;;;;;;;;;;22.00;39.00;;;;;;5048914;28;19971;-62
2022/04/10 13:43:36;;;;;;;;;;;22.20;39.10;;;;;;5066321;28;20284;-61
2022/04/10 13:46:02;;;;;;;;;;;22.10;38.90;;;;;;5066264;28;19916;-60
2022/04/10 13:48:27;;;;;;;;;;;22.10;39.00;;;;;;5059344;28;19916;-60
2022/04/10 13:50:52;;;;;;;;;;;22.00;39.00;;;;;;5081703;28;20743;-60
2022/04/10 13:53:18;;;;;;;;;;;22.00;38.90;;;;;;5069841;28;19927;-60
2022/04/10 13:55:43;;;;;;;;;;;22.10;38.80;;;;;;5072152;28;19913;-60
2022/04/10 13:58:09;;;;;;;;;;;22.10;38.70;;;;;;5053880;28;20013;-60
2022/04/10 14:00:34;;;;;;;;;;;22.20;38.70;;;;;;5064854;28;19909;-60
2022/04/10 14:03:00;;;;;;;;;;;22.10;38.60;;;;;;5080640;28;20398;-60
2022/04/10 14:05:25;;;;;;;;;;;22.20;38.70;;;;;;5055675;28;20369;-60
2022/04/10 14:07:51;;;;;;;;;;;22.20;38.60;;;;;;5056021;28;20290;-60
2022/04/10 14:10:16;;;;;;;;;;;22.30;38.60;;;;;;5068335;28;19922;-60
2022/04/10 14:12:42;;;;;;;;;;;22.30;38.50;;;;;;5052586;28;19919;-61
2022/04/10 14:15:07;;;;;;;;;;;22.30;38.60;;;;;;5057290;28;19908;-60
2022/04/10 14:17:33;;;;;;;;;;;22.30;38.50;;;;;;5052147;28;20435;-60